sensor_id;sensor_type;location;lat;lon;timestamp;P1;durP1;ratioP1;P2;durP2;ratioP2
7829;SDS011;3960;51.86894000;5.39848000;2023-02-26T00:01:19;13.52;;;5.32;;
7829;SDS011;3960;51.86894000;5.39848000;2023-02-26T00:03:49;11.07;;;4.43;;
7829;SDS011;3960;51.86894000;5.39848000;2023-02-26T00:06:15;15.93;;;5.10;;
7829;SDS011;3960;51.86894000;5.39848000;2023-02-26T00:08:40;9.90;;;4.55;;
7829;SDS011;3960;51.86894000;5.39848000;2023-02-26T00:11:06;9.20;;;3.30;;
7829;SDS011;3960;51.86894000;5.39848000;2023-02-26T00:13:33;14.15;;;3.55;;
7829;SDS011;3960;51.86894000;5.39848000;2023-02-26T00:15:59;7.93;;;3.08;;
7829;SDS011;3960;51.86894000;5.39848000;2023-02-26T00:18:25;11.07;;;2.72;;
7829;SDS011;3960;51.86894000;5.39848000;2023-02-26T00:20:51;8.10;;;2.75;;
7829;SDS011;3960;51.86894000;5.39848000;2023-02-26T00:23:17;6.88;;;2.65;;
7829;SDS011;3960;51.86894000;5.39848000;2023-02-26T00:25:43;8.70;;;2.17;;
7829;SDS011;3960;51.86894000;5.39848000;2023-02-26T00:28:09;7.57;;;2.30;;
7829;SDS011;3960;51.86894000;5.39848000;2023-02-26T00:30:35;6.50;;;2.55;;
7829;SDS011;3960;51.86894000;5.39848000;2023-02-26T00:33:01;6.28;;;2.30;;
7829;SDS011;3960;51.86894000;5.39848000;2023-02-26T00:35:27;14.23;;;2.67;;
7829;SDS011;3960;51.86894000;5.39848000;2023-02-26T00:40:38;5.53;;;2.00;;
7829;SDS011;3960;51.86894000;5.39848000;2023-02-26T00:43:05;5.70;;;2.33;;
7829;SDS011;3960;51.86894000;5.39848000;2023-02-26T00:45:33;7.05;;;1.95;;
7829;SDS011;3960;51.86894000;5.39848000;2023-02-26T00:53:45;9.38;;;2.08;;
7829;SDS011;3960;51.86894000;5.39848000;2023-02-26T00:56:13;5.80;;;2.30;;
7829;SDS011;3960;51.86894000;5.39848000;2023-02-26T00:58:39;7.03;;;2.22;;
7829;SDS011;3960;51.86894000;5.39848000;2023-02-26T01:01:04;5.72;;;2.00;;
7829;SDS011;3960;51.86894000;5.39848000;2023-02-26T01:03:30;5.80;;;1.77;;
7829;SDS011;3960;51.86894000;5.39848000;2023-02-26T01:05:56;7.45;;;1.88;;
7829;SDS011;3960;51.86894000;5.39848000;2023-02-26T01:08:23;4.13;;;1.50;;
7829;SDS011;3960;51.86894000;5.39848000;2023-02-26T01:11:05;5.63;;;2.03;;
7829;SDS011;3960;51.86894000;5.39848000;2023-02-26T01:13:30;7.18;;;2.10;;
7829;SDS011;3960;51.86894000;5.39848000;2023-02-26T01:15:58;5.70;;;2.00;;
7829;SDS011;3960;51.86894000;5.39848000;2023-02-26T01:18:35;8.35;;;1.83;;
7829;SDS011;3960;51.86894000;5.39848000;2023-02-26T01:21:07;11.48;;;1.95;;
7829;SDS011;3960;51.86894000;5.39848000;2023-02-26T01:23:39;9.60;;;2.15;;
7829;SDS011;3960;51.86894000;5.39848000;2023-02-26T01:26:11;6.70;;;1.90;;
7829;SDS011;3960;51.86894000;5.39848000;2023-02-26T01:28:44;3.95;;;1.70;;
7829;SDS011;3960;51.86894000;5.39848000;2023-02-26T01:31:13;5.38;;;1.73;;
7829;SDS011;3960;51.86894000;5.39848000;2023-02-26T01:33:50;3.70;;;1.60;;
7829;SDS011;3960;51.86894000;5.39848000;2023-02-26T01:36:20;9.25;;;2.45;;
7829;SDS011;3960;51.86894000;5.39848000;2023-02-26T01:38:50;4.38;;;1.75;;
7829;SDS011;3960;51.86894000;5.39848000;2023-02-26T01:41:26;6.38;;;1.50;;
7829;SDS011;3960;51.86894000;5.39848000;2023-02-26T01:47:13;4.53;;;1.30;;
7829;SDS011;3960;51.86894000;5.39848000;2023-02-26T01:49:44;5.43;;;1.70;;
7829;SDS011;3960;51.86894000;5.39848000;2023-02-26T01:53:03;6.13;;;1.60;;
7829;SDS011;3960;51.86894000;5.39848000;2023-02-26T01:55:14;7.10;;;1.70;;
7829;SDS011;3960;51.86894000;5.39848000;2023-02-26T01:57:43;7.03;;;1.52;;
7829;SDS011;3960;51.86894000;5.39848000;2023-02-26T02:00:08;5.30;;;1.85;;
7829;SDS011;3960;51.86894000;5.39848000;2023-02-26T02:02:34;6.80;;;1.55;;
7829;SDS011;3960;51.86894000;5.39848000;2023-02-26T02:05:04;6.90;;;1.90;;
7829;SDS011;3960;51.86894000;5.39848000;2023-02-26T02:07:36;3.97;;;1.52;;
7829;SDS011;3960;51.86894000;5.39848000;2023-02-26T02:10:01;4.55;;;1.75;;
7829;SDS011;3960;51.86894000;5.39848000;2023-02-26T02:15:08;8.68;;;2.00;;
7829;SDS011;3960;51.86894000;5.39848000;2023-02-26T02:23:34;6.38;;;1.77;;
7829;SDS011;3960;51.86894000;5.39848000;2023-02-26T02:31:24;11.05;;;1.40;;
7829;SDS011;3960;51.86894000;5.39848000;2023-02-26T02:39:31;3.63;;;1.33;;
7829;SDS011;3960;51.86894000;5.39848000;2023-02-26T02:42:06;5.90;;;1.30;;
7829;SDS011;3960;51.86894000;5.39848000;2023-02-26T02:44:42;6.90;;;2.25;;
7829;SDS011;3960;51.86894000;5.39848000;2023-02-26T02:47:10;3.95;;;1.20;;
7829;SDS011;3960;51.86894000;5.39848000;2023-02-26T02:49:49;5.78;;;1.83;;
7829;SDS011;3960;51.86894000;5.39848000;2023-02-26T02:52:25;2.88;;;0.85;;
7829;SDS011;3960;51.86894000;5.39848000;2023-02-26T02:54:59;6.13;;;1.48;;
7829;SDS011;3960;51.86894000;5.39848000;2023-02-26T02:57:51;7.45;;;1.80;;
7829;SDS011;3960;51.86894000;5.39848000;2023-02-26T03:00:18;6.65;;;1.15;;
7829;SDS011;3960;51.86894000;5.39848000;2023-02-26T03:05:49;4.28;;;1.27;;
7829;SDS011;3960;51.86894000;5.39848000;2023-02-26T03:08:15;9.93;;;1.30;;
7829;SDS011;3960;51.86894000;5.39848000;2023-02-26T03:10:43;6.10;;;1.38;;
7829;SDS011;3960;51.86894000;5.39848000;2023-02-26T03:13:15;2.67;;;1.13;;
7829;SDS011;3960;51.86894000;5.39848000;2023-02-26T03:23:59;10.75;;;2.03;;
7829;SDS011;3960;51.86894000;5.39848000;2023-02-26T03:26:34;7.18;;;1.30;;
7829;SDS011;3960;51.86894000;5.39848000;2023-02-26T03:31:54;6.50;;;1.25;;
7829;SDS011;3960;51.86894000;5.39848000;2023-02-26T03:37:16;9.93;;;1.88;;
7829;SDS011;3960;51.86894000;5.39848000;2023-02-26T03:39:49;4.20;;;1.50;;
7829;SDS011;3960;51.86894000;5.39848000;2023-02-26T03:42:18;4.90;;;1.40;;
7829;SDS011;3960;51.86894000;5.39848000;2023-02-26T03:44:52;3.92;;;1.65;;
7829;SDS011;3960;51.86894000;5.39848000;2023-02-26T03:47:21;7.32;;;1.65;;
7829;SDS011;3960;51.86894000;5.39848000;2023-02-26T03:50:09;8.52;;;1.70;;
7829;SDS011;3960;51.86894000;5.39848000;2023-02-26T03:52:38;5.82;;;1.92;;
7829;SDS011;3960;51.86894000;5.39848000;2023-02-26T03:55:17;9.18;;;1.48;;
7829;SDS011;3960;51.86894000;5.39848000;2023-02-26T03:57:46;7.72;;;1.40;;
7829;SDS011;3960;51.86894000;5.39848000;2023-02-26T04:00:12;11.95;;;1.27;;
7829;SDS011;3960;51.86894000;5.39848000;2023-02-26T04:03:20;1.98;;;0.98;;
7829;SDS011;3960;51.86894000;5.39848000;2023-02-26T04:05:32;5.43;;;1.40;;
7829;SDS011;3960;51.86894000;5.39848000;2023-02-26T04:08:02;7.10;;;1.40;;
7829;SDS011;3960;51.86894000;5.39848000;2023-02-26T04:10:33;5.22;;;1.20;;
7829;SDS011;3960;51.86894000;5.39848000;2023-02-26T04:13:03;5.60;;;1.35;;
7829;SDS011;3960;51.86894000;5.39848000;2023-02-26T04:15:29;4.93;;;1.48;;
7829;SDS011;3960;51.86894000;5.39848000;2023-02-26T04:17:54;7.90;;;1.83;;
7829;SDS011;3960;51.86894000;5.39848000;2023-02-26T04:20:19;5.53;;;1.35;;
7829;SDS011;3960;51.86894000;5.39848000;2023-02-26T04:22:45;5.07;;;1.90;;
7829;SDS011;3960;51.86894000;5.39848000;2023-02-26T04:25:10;4.22;;;1.35;;
7829;SDS011;3960;51.86894000;5.39848000;2023-02-26T04:27:35;2.75;;;1.00;;
7829;SDS011;3960;51.86894000;5.39848000;2023-02-26T04:30:01;6.63;;;1.33;;
7829;SDS011;3960;51.86894000;5.39848000;2023-02-26T04:32:26;5.72;;;1.40;;
7829;SDS011;3960;51.86894000;5.39848000;2023-02-26T04:34:51;4.90;;;1.15;;
7829;SDS011;3960;51.86894000;5.39848000;2023-02-26T04:37:17;2.85;;;1.33;;
7829;SDS011;3960;51.86894000;5.39848000;2023-02-26T04:39:42;7.47;;;1.30;;
7829;SDS011;3960;51.86894000;5.39848000;2023-02-26T04:42:07;5.28;;;1.20;;
7829;SDS011;3960;51.86894000;5.39848000;2023-02-26T04:44:32;6.43;;;1.20;;
7829;SDS011;3960;51.86894000;5.39848000;2023-02-26T04:46:58;1.42;;;0.88;;
7829;SDS011;3960;51.86894000;5.39848000;2023-02-26T04:49:23;2.00;;;1.05;;
7829;SDS011;3960;51.86894000;5.39848000;2023-02-26T04:51:48;5.45;;;1.10;;
7829;SDS011;3960;51.86894000;5.39848000;2023-02-26T04:54:14;4.25;;;1.30;;
7829;SDS011;3960;51.86894000;5.39848000;2023-02-26T04:56:39;5.75;;;1.50;;
7829;SDS011;3960;51.86894000;5.39848000;2023-02-26T04:59:04;5.25;;;1.10;;
7829;SDS011;3960;51.86894000;5.39848000;2023-02-26T05:01:30;3.15;;;1.10;;
7829;SDS011;3960;51.86894000;5.39848000;2023-02-26T05:03:55;2.88;;;1.17;;
7829;SDS011;3960;51.86894000;5.39848000;2023-02-26T05:06:20;6.40;;;1.33;;
7829;SDS011;3960;51.86894000;5.39848000;2023-02-26T05:08:46;2.58;;;1.08;;
7829;SDS011;3960;51.86894000;5.39848000;2023-02-26T05:11:11;4.10;;;1.10;;
7829;SDS011;3960;51.86894000;5.39848000;2023-02-26T05:13:37;8.45;;;1.42;;
7829;SDS011;3960;51.86894000;5.39848000;2023-02-26T05:16:02;8.05;;;1.27;;
7829;SDS011;3960;51.86894000;5.39848000;2023-02-26T05:18:28;5.35;;;1.10;;
7829;SDS011;3960;51.86894000;5.39848000;2023-02-26T05:20:54;5.07;;;1.27;;
7829;SDS011;3960;51.86894000;5.39848000;2023-02-26T05:23:20;5.13;;;1.05;;
7829;SDS011;3960;51.86894000;5.39848000;2023-02-26T05:25:45;7.95;;;1.02;;
7829;SDS011;3960;51.86894000;5.39848000;2023-02-26T05:28:11;9.38;;;1.33;;
7829;SDS011;3960;51.86894000;5.39848000;2023-02-26T05:30:36;9.35;;;1.85;;
7829;SDS011;3960;51.86894000;5.39848000;2023-02-26T05:33:01;4.68;;;1.10;;
7829;SDS011;3960;51.86894000;5.39848000;2023-02-26T05:35:27;3.88;;;0.85;;
7829;SDS011;3960;51.86894000;5.39848000;2023-02-26T05:37:52;3.58;;;0.95;;
7829;SDS011;3960;51.86894000;5.39848000;2023-02-26T05:40:17;7.13;;;0.90;;
7829;SDS011;3960;51.86894000;5.39848000;2023-02-26T05:42:42;3.05;;;0.80;;
7829;SDS011;3960;51.86894000;5.39848000;2023-02-26T05:45:09;8.18;;;1.50;;
7829;SDS011;3960;51.86894000;5.39848000;2023-02-26T05:47:35;5.22;;;1.33;;
7829;SDS011;3960;51.86894000;5.39848000;2023-02-26T05:50:00;6.97;;;1.23;;
7829;SDS011;3960;51.86894000;5.39848000;2023-02-26T05:52:26;8.52;;;1.45;;
7829;SDS011;3960;51.86894000;5.39848000;2023-02-26T05:54:51;4.68;;;1.13;;
7829;SDS011;3960;51.86894000;5.39848000;2023-02-26T05:57:17;7.43;;;1.17;;
7829;SDS011;3960;51.86894000;5.39848000;2023-02-26T05:59:43;5.25;;;1.23;;
7829;SDS011;3960;51.86894000;5.39848000;2023-02-26T06:02:08;4.72;;;1.15;;
7829;SDS011;3960;51.86894000;5.39848000;2023-02-26T06:04:33;4.30;;;1.05;;
7829;SDS011;3960;51.86894000;5.39848000;2023-02-26T06:06:59;5.70;;;1.70;;
7829;SDS011;3960;51.86894000;5.39848000;2023-02-26T06:09:25;5.47;;;1.40;;
7829;SDS011;3960;51.86894000;5.39848000;2023-02-26T06:11:50;1.33;;;0.77;;
7829;SDS011;3960;51.86894000;5.39848000;2023-02-26T06:14:15;5.13;;;1.27;;
7829;SDS011;3960;51.86894000;5.39848000;2023-02-26T06:16:41;4.70;;;0.93;;
7829;SDS011;3960;51.86894000;5.39848000;2023-02-26T06:19:06;1.85;;;0.82;;
7829;SDS011;3960;51.86894000;5.39848000;2023-02-26T06:21:31;2.88;;;1.05;;
7829;SDS011;3960;51.86894000;5.39848000;2023-02-26T06:23:56;5.45;;;1.00;;
7829;SDS011;3960;51.86894000;5.39848000;2023-02-26T06:26:22;5.50;;;1.30;;
7829;SDS011;3960;51.86894000;5.39848000;2023-02-26T06:28:47;6.40;;;1.23;;
7829;SDS011;3960;51.86894000;5.39848000;2023-02-26T06:31:12;5.72;;;1.20;;
7829;SDS011;3960;51.86894000;5.39848000;2023-02-26T06:33:38;8.35;;;1.33;;
7829;SDS011;3960;51.86894000;5.39848000;2023-02-26T06:36:03;7.60;;;1.35;;
7829;SDS011;3960;51.86894000;5.39848000;2023-02-26T06:38:29;3.13;;;1.55;;
7829;SDS011;3960;51.86894000;5.39848000;2023-02-26T06:40:54;3.42;;;1.08;;
7829;SDS011;3960;51.86894000;5.39848000;2023-02-26T06:43:19;2.97;;;1.10;;
7829;SDS011;3960;51.86894000;5.39848000;2023-02-26T06:45:45;9.15;;;1.45;;
7829;SDS011;3960;51.86894000;5.39848000;2023-02-26T06:48:11;3.30;;;1.10;;
7829;SDS011;3960;51.86894000;5.39848000;2023-02-26T06:50:36;7.50;;;1.52;;
7829;SDS011;3960;51.86894000;5.39848000;2023-02-26T06:53:01;3.17;;;1.02;;
7829;SDS011;3960;51.86894000;5.39848000;2023-02-26T06:55:27;5.38;;;1.10;;
7829;SDS011;3960;51.86894000;5.39848000;2023-02-26T06:57:53;4.80;;;1.23;;
7829;SDS011;3960;51.86894000;5.39848000;2023-02-26T07:00:18;2.67;;;0.80;;
7829;SDS011;3960;51.86894000;5.39848000;2023-02-26T07:02:44;7.15;;;1.45;;
7829;SDS011;3960;51.86894000;5.39848000;2023-02-26T07:05:10;7.22;;;1.33;;
7829;SDS011;3960;51.86894000;5.39848000;2023-02-26T07:07:35;5.32;;;0.93;;
7829;SDS011;3960;51.86894000;5.39848000;2023-02-26T07:10:00;4.15;;;0.90;;
7829;SDS011;3960;51.86894000;5.39848000;2023-02-26T07:12:25;2.17;;;0.90;;
7829;SDS011;3960;51.86894000;5.39848000;2023-02-26T07:14:51;2.78;;;0.80;;
7829;SDS011;3960;51.86894000;5.39848000;2023-02-26T07:17:16;2.25;;;1.08;;
7829;SDS011;3960;51.86894000;5.39848000;2023-02-26T07:19:48;6.40;;;1.02;;
7829;SDS011;3960;51.86894000;5.39848000;2023-02-26T07:22:14;7.72;;;1.48;;
7829;SDS011;3960;51.86894000;5.39848000;2023-02-26T07:24:40;2.95;;;1.02;;
7829;SDS011;3960;51.86894000;5.39848000;2023-02-26T07:27:06;1.77;;;0.80;;
7829;SDS011;3960;51.86894000;5.39848000;2023-02-26T07:29:32;4.82;;;1.30;;
7829;SDS011;3960;51.86894000;5.39848000;2023-02-26T07:31:57;4.00;;;1.15;;
7829;SDS011;3960;51.86894000;5.39848000;2023-02-26T07:34:22;3.28;;;0.85;;
7829;SDS011;3960;51.86894000;5.39848000;2023-02-26T07:36:47;1.90;;;1.00;;
7829;SDS011;3960;51.86894000;5.39848000;2023-02-26T07:39:13;3.47;;;1.25;;
7829;SDS011;3960;51.86894000;5.39848000;2023-02-26T07:41:38;5.13;;;1.10;;
7829;SDS011;3960;51.86894000;5.39848000;2023-02-26T07:44:04;3.72;;;1.23;;
7829;SDS011;3960;51.86894000;5.39848000;2023-02-26T07:46:29;2.50;;;0.77;;
7829;SDS011;3960;51.86894000;5.39848000;2023-02-26T07:48:54;3.72;;;1.10;;
7829;SDS011;3960;51.86894000;5.39848000;2023-02-26T07:51:20;2.85;;;0.90;;
7829;SDS011;3960;51.86894000;5.39848000;2023-02-26T07:53:45;5.07;;;1.30;;
7829;SDS011;3960;51.86894000;5.39848000;2023-02-26T07:56:10;4.88;;;1.90;;
7829;SDS011;3960;51.86894000;5.39848000;2023-02-26T07:58:36;4.20;;;1.10;;
7829;SDS011;3960;51.86894000;5.39848000;2023-02-26T08:01:01;2.58;;;0.82;;
7829;SDS011;3960;51.86894000;5.39848000;2023-02-26T08:03:26;3.95;;;1.20;;
7829;SDS011;3960;51.86894000;5.39848000;2023-02-26T08:05:52;3.45;;;0.88;;
7829;SDS011;3960;51.86894000;5.39848000;2023-02-26T08:08:17;6.07;;;1.40;;
7829;SDS011;3960;51.86894000;5.39848000;2023-02-26T08:10:42;3.60;;;1.10;;
7829;SDS011;3960;51.86894000;5.39848000;2023-02-26T08:13:08;4.78;;;1.25;;
7829;SDS011;3960;51.86894000;5.39848000;2023-02-26T08:15:33;5.85;;;1.52;;
7829;SDS011;3960;51.86894000;5.39848000;2023-02-26T08:17:59;5.07;;;1.77;;
7829;SDS011;3960;51.86894000;5.39848000;2023-02-26T08:20:24;4.20;;;1.30;;
7829;SDS011;3960;51.86894000;5.39848000;2023-02-26T08:22:49;4.20;;;1.10;;
7829;SDS011;3960;51.86894000;5.39848000;2023-02-26T08:25:15;6.53;;;1.40;;
7829;SDS011;3960;51.86894000;5.39848000;2023-02-26T08:27:41;5.50;;;0.85;;
7829;SDS011;3960;51.86894000;5.39848000;2023-02-26T08:30:07;2.45;;;1.05;;
7829;SDS011;3960;51.86894000;5.39848000;2023-02-26T08:32:33;3.88;;;1.05;;
7829;SDS011;3960;51.86894000;5.39848000;2023-02-26T08:34:59;2.65;;;1.20;;
7829;SDS011;3960;51.86894000;5.39848000;2023-02-26T08:37:24;4.78;;;1.42;;
7829;SDS011;3960;51.86894000;5.39848000;2023-02-26T08:39:50;3.38;;;1.27;;
7829;SDS011;3960;51.86894000;5.39848000;2023-02-26T08:42:16;6.40;;;1.40;;
7829;SDS011;3960;51.86894000;5.39848000;2023-02-26T08:44:42;7.18;;;1.08;;
7829;SDS011;3960;51.86894000;5.39848000;2023-02-26T08:47:07;2.55;;;1.00;;
7829;SDS011;3960;51.86894000;5.39848000;2023-02-26T08:49:33;3.15;;;1.00;;
7829;SDS011;3960;51.86894000;5.39848000;2023-02-26T08:51:58;3.47;;;1.48;;
7829;SDS011;3960;51.86894000;5.39848000;2023-02-26T08:54:23;4.25;;;0.90;;
7829;SDS011;3960;51.86894000;5.39848000;2023-02-26T08:56:49;6.82;;;1.08;;
7829;SDS011;3960;51.86894000;5.39848000;2023-02-26T08:59:14;3.70;;;1.35;;
7829;SDS011;3960;51.86894000;5.39848000;2023-02-26T09:01:39;3.05;;;0.80;;
7829;SDS011;3960;51.86894000;5.39848000;2023-02-26T09:04:05;1.17;;;0.63;;
7829;SDS011;3960;51.86894000;5.39848000;2023-02-26T09:06:30;5.70;;;0.88;;
7829;SDS011;3960;51.86894000;5.39848000;2023-02-26T09:08:55;9.27;;;1.40;;
7829;SDS011;3960;51.86894000;5.39848000;2023-02-26T09:11:21;6.82;;;1.10;;
7829;SDS011;3960;51.86894000;5.39848000;2023-02-26T09:13:46;3.40;;;0.60;;
7829;SDS011;3960;51.86894000;5.39848000;2023-02-26T09:16:11;5.72;;;1.08;;
7829;SDS011;3960;51.86894000;5.39848000;2023-02-26T09:18:37;3.63;;;0.85;;
7829;SDS011;3960;51.86894000;5.39848000;2023-02-26T09:21:02;2.83;;;1.05;;
7829;SDS011;3960;51.86894000;5.39848000;2023-02-26T09:23:28;6.43;;;1.27;;
7829;SDS011;3960;51.86894000;5.39848000;2023-02-26T09:25:53;3.83;;;0.95;;
7829;SDS011;3960;51.86894000;5.39848000;2023-02-26T09:28:21;5.07;;;1.00;;
7829;SDS011;3960;51.86894000;5.39848000;2023-02-26T09:30:49;3.53;;;0.90;;
7829;SDS011;3960;51.86894000;5.39848000;2023-02-26T09:33:16;5.07;;;1.13;;
7829;SDS011;3960;51.86894000;5.39848000;2023-02-26T09:35:41;1.80;;;0.65;;
7829;SDS011;3960;51.86894000;5.39848000;2023-02-26T09:38:06;2.20;;;0.93;;
7829;SDS011;3960;51.86894000;5.39848000;2023-02-26T09:43:10;3.50;;;1.20;;
7829;SDS011;3960;51.86894000;5.39848000;2023-02-26T09:45:59;3.50;;;0.80;;
7829;SDS011;3960;51.86894000;5.39848000;2023-02-26T09:48:28;11.43;;;0.97;;
7829;SDS011;3960;51.86894000;5.39848000;2023-02-26T09:50:56;3.42;;;0.88;;
7829;SDS011;3960;51.86894000;5.39848000;2023-02-26T09:53:29;2.92;;;1.00;;
7829;SDS011;3960;51.86894000;5.39848000;2023-02-26T09:56:00;4.25;;;0.55;;
7829;SDS011;3960;51.86894000;5.39848000;2023-02-26T09:58:37;2.30;;;0.75;;
7829;SDS011;3960;51.86894000;5.39848000;2023-02-26T10:01:12;4.07;;;0.98;;
7829;SDS011;3960;51.86894000;5.39848000;2023-02-26T10:04:00;1.40;;;0.50;;
7829;SDS011;3960;51.86894000;5.39848000;2023-02-26T10:06:52;4.25;;;0.55;;
7829;SDS011;3960;51.86894000;5.39848000;2023-02-26T10:09:36;2.72;;;0.63;;
7829;SDS011;3960;51.86894000;5.39848000;2023-02-26T10:12:24;3.63;;;0.65;;
7829;SDS011;3960;51.86894000;5.39848000;2023-02-26T10:14:57;2.08;;;1.08;;
7829;SDS011;3960;51.86894000;5.39848000;2023-02-26T10:17:29;4.20;;;0.60;;
7829;SDS011;3960;51.86894000;5.39848000;2023-02-26T10:20:22;1.77;;;0.93;;
7829;SDS011;3960;51.86894000;5.39848000;2023-02-26T10:22:56;1.00;;;0.50;;
7829;SDS011;3960;51.86894000;5.39848000;2023-02-26T10:27:57;3.22;;;0.95;;
7829;SDS011;3960;51.86894000;5.39848000;2023-02-26T10:35:38;3.05;;;0.82;;
7829;SDS011;3960;51.86894000;5.39848000;2023-02-26T10:38:11;2.38;;;0.52;;
7829;SDS011;3960;51.86894000;5.39848000;2023-02-26T10:40:42;1.80;;;0.70;;
7829;SDS011;3960;51.86894000;5.39848000;2023-02-26T10:43:21;3.22;;;0.52;;
7829;SDS011;3960;51.86894000;5.39848000;2023-02-26T10:51:13;3.83;;;0.70;;
7829;SDS011;3960;51.86894000;5.39848000;2023-02-26T10:53:46;2.00;;;0.70;;
7829;SDS011;3960;51.86894000;5.39848000;2023-02-26T10:56:17;4.30;;;0.90;;
7829;SDS011;3960;51.86894000;5.39848000;2023-02-26T11:01:20;2.55;;;0.68;;
7829;SDS011;3960;51.86894000;5.39848000;2023-02-26T11:03:48;3.17;;;0.65;;
7829;SDS011;3960;51.86894000;5.39848000;2023-02-26T11:06:20;4.40;;;0.57;;
7829;SDS011;3960;51.86894000;5.39848000;2023-02-26T11:08:50;3.88;;;0.90;;
7829;SDS011;3960;51.86894000;5.39848000;2023-02-26T11:11:40;2.38;;;0.55;;
7829;SDS011;3960;51.86894000;5.39848000;2023-02-26T11:14:17;1.65;;;0.50;;
7829;SDS011;3960;51.86894000;5.39848000;2023-02-26T11:16:55;0.65;;;0.30;;
7829;SDS011;3960;51.86894000;5.39848000;2023-02-26T11:19:41;2.47;;;0.70;;
7829;SDS011;3960;51.86894000;5.39848000;2023-02-26T11:22:17;2.35;;;1.00;;
7829;SDS011;3960;51.86894000;5.39848000;2023-02-26T11:24:43;3.13;;;0.80;;
7829;SDS011;3960;51.86894000;5.39848000;2023-02-26T11:27:23;3.45;;;0.68;;
7829;SDS011;3960;51.86894000;5.39848000;2023-02-26T11:29:58;0.98;;;0.50;;
7829;SDS011;3960;51.86894000;5.39848000;2023-02-26T11:32:33;2.00;;;0.68;;
7829;SDS011;3960;51.86894000;5.39848000;2023-02-26T11:35:00;3.10;;;0.70;;
7829;SDS011;3960;51.86894000;5.39848000;2023-02-26T11:37:29;1.90;;;0.75;;
7829;SDS011;3960;51.86894000;5.39848000;2023-02-26T11:40:03;1.48;;;0.52;;
7829;SDS011;3960;51.86894000;5.39848000;2023-02-26T11:42:34;2.80;;;0.88;;
7829;SDS011;3960;51.86894000;5.39848000;2023-02-26T11:45:03;3.58;;;0.82;;
7829;SDS011;3960;51.86894000;5.39848000;2023-02-26T11:47:29;6.75;;;0.82;;
7829;SDS011;3960;51.86894000;5.39848000;2023-02-26T11:49:59;3.65;;;0.80;;
7829;SDS011;3960;51.86894000;5.39848000;2023-02-26T11:52:31;1.00;;;0.60;;
7829;SDS011;3960;51.86894000;5.39848000;2023-02-26T11:55:04;4.40;;;0.70;;
7829;SDS011;3960;51.86894000;5.39848000;2023-02-26T11:57:41;3.58;;;0.57;;
7829;SDS011;3960;51.86894000;5.39848000;2023-02-26T12:00:29;3.00;;;0.70;;
7829;SDS011;3960;51.86894000;5.39848000;2023-02-26T12:03:00;1.92;;;0.70;;
7829;SDS011;3960;51.86894000;5.39848000;2023-02-26T12:05:28;2.45;;;0.80;;
7829;SDS011;3960;51.86894000;5.39848000;2023-02-26T12:07:54;3.25;;;0.60;;
7829;SDS011;3960;51.86894000;5.39848000;2023-02-26T12:10:21;1.70;;;0.68;;
7829;SDS011;3960;51.86894000;5.39848000;2023-02-26T12:12:56;3.10;;;0.75;;
7829;SDS011;3960;51.86894000;5.39848000;2023-02-26T12:15:36;1.83;;;0.50;;
7829;SDS011;3960;51.86894000;5.39848000;2023-02-26T12:26:24;4.22;;;0.93;;
7829;SDS011;3960;51.86894000;5.39848000;2023-02-26T12:29:07;1.85;;;0.80;;
7829;SDS011;3960;51.86894000;5.39848000;2023-02-26T12:40:41;1.15;;;0.60;;
7829;SDS011;3960;51.86894000;5.39848000;2023-02-26T12:42:41;1.02;;;0.68;;
7829;SDS011;3960;51.86894000;5.39848000;2023-02-26T12:45:22;2.70;;;0.80;;
7829;SDS011;3960;51.86894000;5.39848000;2023-02-26T12:58:35;3.08;;;0.73;;
7829;SDS011;3960;51.86894000;5.39848000;2023-02-26T13:01:25;4.10;;;0.80;;
7829;SDS011;3960;51.86894000;5.39848000;2023-02-26T13:04:14;0.55;;;0.20;;
7829;SDS011;3960;51.86894000;5.39848000;2023-02-26T13:07:10;2.35;;;0.82;;
7829;SDS011;3960;51.86894000;5.39848000;2023-02-26T13:12:34;2.70;;;0.75;;
7829;SDS011;3960;51.86894000;5.39848000;2023-02-26T13:18:05;1.98;;;0.98;;
7829;SDS011;3960;51.86894000;5.39848000;2023-02-26T13:20:36;1.83;;;0.93;;
7829;SDS011;3960;51.86894000;5.39848000;2023-02-26T13:23:09;1.33;;;0.60;;
7829;SDS011;3960;51.86894000;5.39848000;2023-02-26T13:25:48;2.45;;;0.70;;
7829;SDS011;3960;51.86894000;5.39848000;2023-02-26T13:28:35;1.77;;;0.63;;
7829;SDS011;3960;51.86894000;5.39848000;2023-02-26T13:31:07;2.10;;;0.68;;
7829;SDS011;3960;51.86894000;5.39848000;2023-02-26T13:33:37;1.27;;;0.63;;
7829;SDS011;3960;51.86894000;5.39848000;2023-02-26T13:36:04;0.70;;;0.50;;
7829;SDS011;3960;51.86894000;5.39848000;2023-02-26T13:38:34;1.00;;;0.40;;
7829;SDS011;3960;51.86894000;5.39848000;2023-02-26T13:52:27;2.58;;;0.47;;
7829;SDS011;3960;51.86894000;5.39848000;2023-02-26T13:54:54;1.65;;;0.73;;
7829;SDS011;3960;51.86894000;5.39848000;2023-02-26T13:57:37;2.08;;;0.52;;
7829;SDS011;3960;51.86894000;5.39848000;2023-02-26T14:00:25;0.93;;;0.70;;
7829;SDS011;3960;51.86894000;5.39848000;2023-02-26T14:14:12;1.30;;;0.60;;
7829;SDS011;3960;51.86894000;5.39848000;2023-02-26T14:16:42;2.80;;;0.70;;
7829;SDS011;3960;51.86894000;5.39848000;2023-02-26T14:21:39;2.63;;;0.80;;
7829;SDS011;3960;51.86894000;5.39848000;2023-02-26T14:27:30;2.85;;;0.73;;
7829;SDS011;3960;51.86894000;5.39848000;2023-02-26T14:30:02;3.70;;;0.85;;
7829;SDS011;3960;51.86894000;5.39848000;2023-02-26T14:37:58;0.45;;;0.38;;
7829;SDS011;3960;51.86894000;5.39848000;2023-02-26T14:40:24;1.55;;;0.45;;
7829;SDS011;3960;51.86894000;5.39848000;2023-02-26T14:43:01;1.42;;;0.80;;
7829;SDS011;3960;51.86894000;5.39848000;2023-02-26T14:45:29;2.42;;;0.70;;
7829;SDS011;3960;51.86894000;5.39848000;2023-02-26T14:47:57;3.47;;;0.73;;
7829;SDS011;3960;51.86894000;5.39848000;2023-02-26T14:50:24;2.60;;;0.77;;
7829;SDS011;3960;51.86894000;5.39848000;2023-02-26T15:01:45;4.13;;;1.20;;
7829;SDS011;3960;51.86894000;5.39848000;2023-02-26T15:04:51;3.10;;;0.90;;
7829;SDS011;3960;51.86894000;5.39848000;2023-02-26T15:07:41;2.78;;;0.90;;
7829;SDS011;3960;51.86894000;5.39848000;2023-02-26T15:24:01;2.38;;;0.68;;
7829;SDS011;3960;51.86894000;5.39848000;2023-02-26T15:26:28;0.85;;;0.55;;
7829;SDS011;3960;51.86894000;5.39848000;2023-02-26T15:28:57;1.48;;;0.40;;
7829;SDS011;3960;51.86894000;5.39848000;2023-02-26T15:31:32;2.00;;;0.60;;
7829;SDS011;3960;51.86894000;5.39848000;2023-02-26T15:34:00;1.00;;;0.50;;
7829;SDS011;3960;51.86894000;5.39848000;2023-02-26T15:36:27;1.38;;;0.73;;
7829;SDS011;3960;51.86894000;5.39848000;2023-02-26T15:38:54;3.90;;;1.38;;
7829;SDS011;3960;51.86894000;5.39848000;2023-02-26T15:41:23;0.98;;;0.40;;
7829;SDS011;3960;51.86894000;5.39848000;2023-02-26T15:43:51;2.97;;;0.75;;
7829;SDS011;3960;51.86894000;5.39848000;2023-02-26T15:46:24;3.13;;;1.15;;
7829;SDS011;3960;51.86894000;5.39848000;2023-02-26T15:48:55;3.60;;;0.98;;
7829;SDS011;3960;51.86894000;5.39848000;2023-02-26T15:53:51;2.67;;;1.02;;
7829;SDS011;3960;51.86894000;5.39848000;2023-02-26T15:56:27;1.98;;;0.90;;
7829;SDS011;3960;51.86894000;5.39848000;2023-02-26T16:01:22;6.72;;;1.15;;
7829;SDS011;3960;51.86894000;5.39848000;2023-02-26T16:03:51;1.77;;;0.95;;
7829;SDS011;3960;51.86894000;5.39848000;2023-02-26T16:06:28;2.33;;;1.02;;